Verdilla, Pennsylvania
Current Conditions -  °F | °C
As of 4:53 PM on Friday 28 Nov 2014 (Local Time) from KSEG Reporting Station
Clear Clear  
Wind Chill: 25°   Ceiling: Unl
Heat Index: 30°   Visibility: 10mi
Dew Point: 15°   Wind: 5mph
Humidity: 54%   Direction: 240°WSW
Pressure: 30.24"   Gusts: NA
Location:  40.8385°N, 76.8972°W
Report Text: KSEG 282153Z AUTO 24004KT 10SM CLR M01/M09 A3024 RMK AO2 SLP244 T10111094
Loading
Personal Weather Stations






























Interactive Weather Map New forecast layout! Learn more

10-Day Weather Forecast

Advertisements
Track Severe Weather on mobile